createdAt,value
2022-10-16T00:01:46.256Z,100171.41
2022-10-16T00:04:14.647Z,100173.31
2022-10-16T00:06:42.403Z,100178.53
2022-10-16T00:09:10.533Z,100171.16
2022-10-16T00:11:40.545Z,100166.47
2022-10-16T00:14:09.955Z,100151.16
2022-10-16T00:16:37.756Z,100141.22
2022-10-16T00:19:07.369Z,100145.94
2022-10-16T00:21:35.800Z,100133.34
2022-10-16T00:24:22.342Z,100146.25
2022-10-16T00:26:51.741Z,100156.00
2022-10-16T00:29:19.737Z,100165.31
2022-10-16T00:31:47.441Z,100173.03
2022-10-16T00:34:16.591Z,100173.88
2022-10-16T00:36:44.365Z,100166.75
2022-10-16T00:39:12.191Z,100171.97
2022-10-16T00:41:39.995Z,100162.16
2022-10-16T00:44:40.944Z,100159.66
2022-10-16T00:47:11.310Z,100154.88
2022-10-16T00:49:40.734Z,100153.94
2022-10-16T00:52:08.598Z,100161.56
2022-10-16T00:54:36.436Z,100149.53
2022-10-16T00:57:07.374Z,100157.50
2022-10-16T00:59:38.766Z,100157.75
2022-10-16T01:02:09.966Z,100162.72
2022-10-16T01:04:42.404Z,100159.41
2022-10-16T01:07:16.319Z,100160.78
2022-10-16T01:09:53.597Z,100161.69
2022-10-16T01:12:29.350Z,100179.44
2022-10-16T01:15:01.101Z,100185.00
2022-10-16T01:17:35.528Z,100175.56
2022-10-16T01:20:12.090Z,100180.00
2022-10-16T01:22:48.944Z,100196.19
2022-10-16T01:25:27.238Z,100189.94
2022-10-16T01:27:57.119Z,100191.91
2022-10-16T01:30:28.075Z,100199.03
2022-10-16T01:33:01.419Z,100179.81
2022-10-16T01:35:34.316Z,100185.66
2022-10-16T01:38:06.950Z,100171.97
2022-10-16T01:40:37.917Z,100179.81
2022-10-16T01:43:10.893Z,100161.16
2022-10-16T01:45:39.056Z,100160.00
2022-10-16T01:48:10.575Z,100167.75
2022-10-16T01:50:41.741Z,100176.41
2022-10-16T01:53:14.198Z,100181.03
2022-10-16T01:55:48.043Z,100178.03
2022-10-16T01:58:17.511Z,100185.34
2022-10-16T02:00:47.688Z,100198.16
2022-10-16T02:03:18.165Z,100201.38
2022-10-16T02:05:49.119Z,100200.31
2022-10-16T02:08:17.058Z,100193.75
2022-10-16T02:10:45.121Z,100199.47
2022-10-16T02:13:18.890Z,100188.53
2022-10-16T02:15:48.107Z,100190.69
2022-10-16T02:18:16.572Z,100194.50
2022-10-16T02:20:59.450Z,100201.63
2022-10-16T02:23:36.410Z,100204.38
2022-10-16T02:26:08.392Z,100209.84
2022-10-16T02:28:43.122Z,100211.00
2022-10-16T02:31:14.821Z,100205.28
2022-10-16T02:33:45.398Z,100205.28
2022-10-16T02:36:14.230Z,100196.16
2022-10-16T02:38:42.630Z,100210.91
2022-10-16T02:41:10.744Z,100203.78
2022-10-16T02:43:38.482Z,100199.44
2022-10-16T02:46:06.491Z,100204.38
2022-10-16T02:48:35.895Z,100199.97
2022-10-16T02:51:03.652Z,100204.31
2022-10-16T02:53:31.493Z,100210.38
2022-10-16T02:55:59.419Z,100211.75
2022-10-16T02:58:27.174Z,100213.41
2022-10-16T03:00:55.167Z,100207.34
2022-10-16T03:03:23.182Z,100208.03
2022-10-16T03:05:52.340Z,100204.75
2022-10-16T03:08:24.381Z,100221.41
2022-10-16T03:10:52.486Z,100226.88
2022-10-16T03:13:21.355Z,100233.19
2022-10-16T03:15:49.404Z,100232.03
2022-10-16T03:18:17.341Z,100229.53
2022-10-16T03:20:45.683Z,100228.38
2022-10-16T03:23:15.753Z,100229.28
2022-10-16T03:25:43.608Z,100238.84
2022-10-16T03:28:11.344Z,100236.41
2022-10-16T03:30:40.575Z,100232.03
2022-10-16T03:33:08.413Z,100245.78
2022-10-16T03:35:36.121Z,100245.34
2022-10-16T03:38:03.899Z,100250.41
2022-10-16T03:40:33.227Z,100243.88
2022-10-16T03:43:01.244Z,100235.59
2022-10-16T03:45:29.046Z,100238.41
2022-10-16T03:47:56.996Z,100244.72
2022-10-16T03:50:24.701Z,100247.03
2022-10-16T03:52:52.466Z,100264.09
2022-10-16T03:55:20.250Z,100251.41
2022-10-16T03:57:49.704Z,100247.09
2022-10-16T04:00:17.884Z,100242.66
2022-10-16T04:05:14.459Z,100250.84
2022-10-16T04:07:42.265Z,100247.69
2022-10-16T04:10:10.618Z,100247.09
2022-10-16T04:12:38.565Z,100244.69
2022-10-16T04:15:08.843Z,100248.41
2022-10-16T04:17:36.666Z,100249.50
2022-10-16T04:20:05.213Z,100258.47
2022-10-16T04:22:33.021Z,100269.47
2022-10-16T04:25:00.840Z,100266.13
2022-10-16T04:27:29.518Z,100277.91
2022-10-16T04:29:57.444Z,100276.75
2022-10-16T04:32:26.927Z,100275.44
2022-10-16T04:34:54.958Z,100266.06
2022-10-16T04:37:26.191Z,100262.44
2022-10-16T04:39:54.352Z,100262.34
2022-10-16T04:42:22.823Z,100274.22
2022-10-16T04:44:50.726Z,100274.16
2022-10-16T04:47:18.493Z,100259.22
2022-10-16T04:49:47.714Z,100270.78
2022-10-16T04:52:15.880Z,100278.84
2022-10-16T04:54:45.990Z,100273.13
2022-10-16T04:57:13.753Z,100256.06
2022-10-16T04:59:41.510Z,100266.50
2022-10-16T05:02:09.301Z,100268.97
2022-10-16T05:04:37.041Z,100256.31
2022-10-16T05:07:06.119Z,100271.38
2022-10-16T05:09:33.923Z,100281.81
2022-10-16T05:12:01.704Z,100274.59
2022-10-16T05:14:29.545Z,100272.94
2022-10-16T05:16:57.484Z,100283.72
2022-10-16T05:19:27.736Z,100280.25
2022-10-16T05:21:56.465Z,100280.56
2022-10-16T05:24:25.606Z,100296.72
2022-10-16T05:26:53.440Z,100279.91
2022-10-16T05:29:21.752Z,100293.25
2022-10-16T05:31:53.078Z,100296.72
2022-10-16T05:34:21.192Z,100295.00
2022-10-16T05:36:48.996Z,100284.31
2022-10-16T05:39:18.454Z,100266.56
2022-10-16T05:41:48.038Z,100250.41
2022-10-16T05:44:17.057Z,100267.91
2022-10-16T05:46:45.169Z,100270.53
2022-10-16T05:49:12.942Z,100266.06
2022-10-16T05:51:40.915Z,100279.56
2022-10-16T05:54:08.794Z,100287.69
2022-10-16T05:56:37.922Z,100290.09
2022-10-16T05:59:07.541Z,100282.53
2022-10-16T06:01:36.213Z,100305.41
2022-10-16T06:04:04.323Z,100307.44
2022-10-16T06:06:32.403Z,100318.69
2022-10-16T06:09:00.747Z,100316.53
2022-10-16T06:11:31.429Z,100324.50
2022-10-16T06:14:02.581Z,100330.88
2022-10-16T06:16:31.766Z,100331.94
2022-10-16T06:19:00.299Z,100324.25
2022-10-16T06:21:30.007Z,100319.22
2022-10-16T06:23:58.650Z,100325.19
2022-10-16T06:26:28.649Z,100328.22
2022-10-16T06:28:57.498Z,100315.66
2022-10-16T06:31:28.443Z,100332.81
2022-10-16T06:33:58.733Z,100331.97
2022-10-16T06:36:27.244Z,100344.16
2022-10-16T06:38:55.350Z,100344.66
2022-10-16T06:41:24.736Z,100338.88
2022-10-16T06:43:53.127Z,100326.69
2022-10-16T06:46:23.783Z,100332.72
2022-10-16T06:48:52.006Z,100332.97
2022-10-16T06:51:22.731Z,100338.81
2022-10-16T06:54:04.960Z,100347.53
2022-10-16T06:56:34.254Z,100340.44
2022-10-16T06:59:02.771Z,100348.88
2022-10-16T07:01:31.354Z,100341.84
2022-10-16T07:03:59.307Z,100355.53
2022-10-16T07:06:29.549Z,100354.63
2022-10-16T07:08:57.381Z,100347.31
2022-10-16T07:11:25.968Z,100349.53
2022-10-16T07:13:55.839Z,100350.00
2022-10-16T07:16:26.013Z,100360.78
2022-10-16T07:18:59.128Z,100366.88
2022-10-16T07:21:30.538Z,100377.00
2022-10-16T07:24:01.963Z,100376.53
2022-10-16T07:26:31.984Z,100382.41
2022-10-16T07:28:59.990Z,100388.25
2022-10-16T07:31:28.416Z,100384.06
2022-10-16T07:33:56.942Z,100398.03
2022-10-16T07:36:24.751Z,100388.53
2022-10-16T07:38:57.106Z,100422.00
2022-10-16T07:41:28.569Z,100406.16
2022-10-16T07:44:00.965Z,100397.34
2022-10-16T07:46:29.600Z,100408.59
2022-10-16T07:48:58.032Z,100417.81
2022-10-16T07:51:27.116Z,100431.66
2022-10-16T07:53:56.727Z,100434.59
2022-10-16T07:56:25.114Z,100430.97
2022-10-16T07:58:53.833Z,100412.94
2022-10-16T08:01:21.996Z,100426.44
2022-10-16T08:03:52.061Z,100421.50
2022-10-16T08:06:25.011Z,100435.84
2022-10-16T08:08:57.976Z,100435.13
2022-10-16T08:11:26.086Z,100437.13
2022-10-16T08:13:53.977Z,100467.06
2022-10-16T08:16:22.165Z,100471.72
2022-10-16T08:18:52.206Z,100476.09
2022-10-16T08:21:22.050Z,100472.31
2022-10-16T08:23:54.622Z,100482.03
2022-10-16T08:26:28.231Z,100474.25
2022-10-16T08:28:56.357Z,100469.91
2022-10-16T08:31:24.202Z,100480.69
2022-10-16T08:33:53.162Z,100483.34
2022-10-16T08:36:21.112Z,100485.06
2022-10-16T08:38:51.502Z,100492.66
2022-10-16T08:41:48.463Z,100485.78
2022-10-16T08:44:32.977Z,100501.28
2022-10-16T08:47:08.358Z,100508.03
2022-10-16T08:49:36.411Z,100505.28
2022-10-16T08:52:04.496Z,100511.34
2022-10-16T08:54:38.510Z,100514.38
2022-10-16T08:57:13.200Z,100516.81
2022-10-16T08:59:42.412Z,100514.28
2022-10-16T09:02:26.462Z,100506.94
2022-10-16T09:05:05.582Z,100523.78
2022-10-16T09:07:40.097Z,100532.53
2022-10-16T09:10:23.498Z,100543.16
2022-10-16T09:13:04.898Z,100550.53
2022-10-16T09:15:41.631Z,100528.53
2022-10-16T09:18:17.542Z,100521.63
2022-10-16T09:20:54.057Z,100537.03
2022-10-16T09:23:27.570Z,100541.69
2022-10-16T09:25:57.696Z,100547.19
2022-10-16T09:28:25.726Z,100554.41
2022-10-16T09:30:55.245Z,100564.78
2022-10-16T09:33:27.459Z,100560.97
2022-10-16T09:35:59.315Z,100574.91
2022-10-16T09:38:30.292Z,100573.97
2022-10-16T09:41:03.135Z,100587.88
2022-10-16T09:43:40.779Z,100592.19
2022-10-16T09:46:22.983Z,100580.75
2022-10-16T09:48:52.969Z,100587.38
2022-10-16T09:51:23.800Z,100598.31
2022-10-16T09:53:56.928Z,100597.25
2022-10-16T09:56:27.433Z,100596.13
2022-10-16T09:58:57.150Z,100598.50
2022-10-16T10:01:31.274Z,100592.88
2022-10-16T10:04:02.229Z,100592.28
2022-10-16T10:06:34.630Z,100605.47
2022-10-16T10:09:07.084Z,100602.31
2022-10-16T10:11:48.979Z,100606.66
2022-10-16T10:14:24.364Z,100593.63
2022-10-16T10:16:54.396Z,100592.22
2022-10-16T10:19:26.139Z,100594.59
2022-10-16T10:21:55.895Z,100587.06
2022-10-16T10:24:23.686Z,100585.81
2022-10-16T10:26:59.613Z,100591.59
2022-10-16T10:29:39.884Z,100586.22
2022-10-16T10:32:19.691Z,100589.63
2022-10-16T10:35:01.973Z,100580.44
2022-10-16T10:37:48.839Z,100585.31
2022-10-16T10:40:30.114Z,100594.88
2022-10-16T10:43:03.484Z,100597.69
2022-10-16T10:45:44.114Z,100588.78
2022-10-16T10:48:43.146Z,100577.59
2022-10-16T10:51:15.974Z,100575.25
2022-10-16T10:53:52.966Z,100569.72
2022-10-16T10:56:39.480Z,100578.84
2022-10-16T10:59:39.571Z,100591.22
2022-10-16T11:02:16.243Z,100575.06
2022-10-16T11:05:14.480Z,100587.06
2022-10-16T11:07:56.326Z,100570.09
2022-10-16T11:10:28.244Z,100574.19
2022-10-16T11:13:02.109Z,100555.75
2022-10-16T11:15:34.367Z,100567.56
2022-10-16T11:18:08.194Z,100572.59
2022-10-16T11:20:45.686Z,100558.34
2022-10-16T11:23:18.638Z,100574.84
2022-10-16T11:25:49.236Z,100571.75
2022-10-16T11:28:22.083Z,100572.25
2022-10-16T11:30:55.667Z,100566.88
2022-10-16T11:33:32.714Z,100570.16
2022-10-16T11:36:10.624Z,100569.75
2022-10-16T11:38:45.559Z,100569.63
2022-10-16T11:41:24.231Z,100582.94
2022-10-16T11:44:04.656Z,100570.06
2022-10-16T11:46:47.868Z,100576.16
2022-10-16T11:49:28.507Z,100569.38
2022-10-16T11:52:07.848Z,100570.59
2022-10-16T11:54:41.428Z,100575.72
2022-10-16T11:57:15.073Z,100575.41
2022-10-16T11:59:47.644Z,100579.56
2022-10-16T12:02:33.470Z,100560.88
2022-10-16T12:05:17.624Z,100565.28
2022-10-16T12:07:53.778Z,100558.38
2022-10-16T12:10:27.399Z,100564.44
2022-10-16T12:12:57.304Z,100559.25
2022-10-16T12:15:54.637Z,100565.81
2022-10-16T12:18:24.137Z,100582.91
2022-10-16T12:20:59.865Z,100577.31
2022-10-16T12:23:29.177Z,100573.03
2022-10-16T12:25:58.860Z,100564.50
2022-10-16T12:28:29.997Z,100559.72
2022-10-16T12:31:00.093Z,100563.63
2022-10-16T12:33:29.885Z,100552.31
2022-10-16T12:36:00.224Z,100566.13
2022-10-16T12:38:34.319Z,100564.78
2022-10-16T12:41:04.930Z,100568.88
2022-10-16T12:43:43.236Z,100573.53
2022-10-16T12:46:40.134Z,100575.81
2022-10-16T12:49:22.240Z,100568.63
2022-10-16T12:51:50.237Z,100567.00
2022-10-16T12:54:21.741Z,100572.00
2022-10-16T12:56:59.875Z,100583.56
2022-10-16T12:59:37.380Z,100581.06
2022-10-16T13:02:28.889Z,100587.97
2022-10-16T13:05:19.026Z,100567.28
2022-10-16T13:08:01.703Z,100575.56
2022-10-16T13:10:40.298Z,100554.31
2022-10-16T13:13:29.597Z,100579.13
2022-10-16T13:16:06.678Z,100584.34
2022-10-16T13:18:42.800Z,100581.94
2022-10-16T13:21:24.472Z,100580.81
2022-10-16T13:24:02.512Z,100593.47
2022-10-16T13:26:41.887Z,100595.41
2022-10-16T13:29:09.859Z,100598.97
2022-10-16T13:31:40.986Z,100590.72
2022-10-16T13:34:16.602Z,100597.06
2022-10-16T13:36:51.249Z,100585.22
2022-10-16T13:39:24.958Z,100584.34
2022-10-16T13:44:44.120Z,100591.22
2022-10-16T13:47:19.821Z,100587.09
2022-10-16T13:49:48.802Z,100583.53
2022-10-16T13:52:23.332Z,100585.19
2022-10-16T13:54:51.804Z,100578.31
2022-10-16T13:57:27.508Z,100584.91
2022-10-16T14:02:29.294Z,100587.97
2022-10-16T14:04:59.769Z,100586.84
2022-10-16T14:07:29.738Z,100582.66
2022-10-16T14:10:01.962Z,100565.59
2022-10-16T14:12:31.635Z,100565.88
2022-10-16T14:15:01.988Z,100572.47
2022-10-16T14:17:35.158Z,100575.28
2022-10-16T14:20:07.642Z,100572.53
2022-10-16T14:22:37.619Z,100570.06
2022-10-16T14:25:28.443Z,100567.88
2022-10-16T14:28:03.741Z,100581.59
2022-10-16T14:30:33.245Z,100594.00
2022-10-16T14:33:02.912Z,100591.78
2022-10-16T14:35:33.318Z,100595.63
2022-10-16T14:38:03.084Z,100588.47
2022-10-16T14:40:33.301Z,100593.19
2022-10-16T14:43:03.468Z,100586.59
2022-10-16T14:45:33.800Z,100595.41
2022-10-16T14:48:05.191Z,100554.03
2022-10-16T14:50:33.297Z,100588.78
2022-10-16T14:53:02.588Z,100593.75
2022-10-16T14:55:30.564Z,100570.88
2022-10-16T14:58:00.788Z,100592.91
2022-10-16T15:00:30.712Z,100581.06
2022-10-16T15:02:58.617Z,100592.66
2022-10-16T15:05:28.144Z,100575.28
2022-10-16T15:07:57.245Z,100578.88
2022-10-16T15:10:27.980Z,100589.06
2022-10-16T15:12:56.695Z,100592.09
2022-10-16T15:15:36.956Z,100581.81
2022-10-16T15:18:05.844Z,100564.44
2022-10-16T15:20:36.494Z,100576.66
2022-10-16T15:23:05.986Z,100575.44
2022-10-16T15:25:38.525Z,100583.97
2022-10-16T15:28:07.868Z,100570.53
2022-10-16T15:30:38.226Z,100583.34
2022-10-16T15:33:07.892Z,100589.22
2022-10-16T15:35:35.979Z,100600.59
2022-10-16T15:38:03.911Z,100597.34
2022-10-16T15:40:32.230Z,100607.25
2022-10-16T15:43:00.282Z,100598.19
2022-10-16T15:45:28.355Z,100602.84
2022-10-16T15:47:57.768Z,100613.56
2022-10-16T15:50:26.262Z,100600.06
2022-10-16T15:52:55.272Z,100617.94
2022-10-16T15:55:23.445Z,100617.91
2022-10-16T15:57:52.719Z,100612.03
2022-10-16T16:00:22.950Z,100615.66
2022-10-16T16:02:56.469Z,100618.94
2022-10-16T16:05:25.761Z,100623.88
2022-10-16T16:07:53.932Z,100625.22
2022-10-16T16:10:22.707Z,100625.22
2022-10-16T16:12:52.870Z,100625.50
2022-10-16T16:15:21.825Z,100609.41
2022-10-16T16:17:51.017Z,100605.00
2022-10-16T16:20:19.253Z,100624.78
2022-10-16T16:22:49.304Z,100604.31
2022-10-16T16:25:17.498Z,100621.38
2022-10-16T16:27:45.755Z,100621.88
2022-10-16T16:30:18.322Z,100635.03
2022-10-16T16:32:48.121Z,100617.03
2022-10-16T16:35:18.289Z,100619.97
2022-10-16T16:37:48.982Z,100630.16
2022-10-16T16:40:17.486Z,100633.97
2022-10-16T16:42:45.557Z,100621.16
2022-10-16T16:45:13.533Z,100636.78
2022-10-16T16:47:41.494Z,100620.09
2022-10-16T16:50:10.072Z,100612.00
2022-10-16T16:52:38.128Z,100645.03
2022-10-16T16:55:08.211Z,100648.50
2022-10-16T16:57:36.400Z,100652.53
2022-10-16T17:00:07.381Z,100637.06
2022-10-16T17:02:35.381Z,100648.88
2022-10-16T17:05:03.292Z,100655.72
2022-10-16T17:07:35.390Z,100648.22
2022-10-16T17:10:03.875Z,100644.56
2022-10-16T17:12:33.355Z,100656.13
2022-10-16T17:15:01.385Z,100644.72
2022-10-16T17:17:30.249Z,100666.22
2022-10-16T17:19:58.670Z,100626.88
2022-10-16T17:22:27.033Z,100649.50
2022-10-16T17:24:55.312Z,100657.59
2022-10-16T17:27:23.826Z,100646.06
2022-10-16T17:29:54.045Z,100654.84
2022-10-16T17:32:23.864Z,100677.97
2022-10-16T17:35:10.665Z,100681.50
2022-10-16T17:37:38.767Z,100676.50
2022-10-16T17:40:07.900Z,100663.47
2022-10-16T17:42:36.111Z,100681.22
2022-10-16T17:45:06.171Z,100684.63
2022-10-16T17:47:34.258Z,100682.63
2022-10-16T17:50:02.482Z,100682.31
2022-10-16T17:52:30.820Z,100685.69
2022-10-16T17:54:59.314Z,100679.97
2022-10-16T17:57:27.346Z,100704.66
2022-10-16T17:59:55.846Z,100693.69
2022-10-16T18:02:26.058Z,100684.22
2022-10-16T18:04:55.758Z,100692.44
2022-10-16T18:07:23.981Z,100690.53
2022-10-16T18:10:10.727Z,100671.44
2022-10-16T18:12:40.532Z,100695.47
2022-10-16T18:15:09.756Z,100717.97
2022-10-16T18:17:39.354Z,100709.69
2022-10-16T18:20:09.109Z,100694.13
2022-10-16T18:22:38.145Z,100726.59
2022-10-16T18:25:07.552Z,100699.25
2022-10-16T18:27:36.263Z,100717.50
2022-10-16T18:30:05.489Z,100675.25
2022-10-16T18:32:35.910Z,100698.75
2022-10-16T18:35:05.785Z,100682.47
2022-10-16T18:37:36.546Z,100666.69
2022-10-16T18:40:05.260Z,100680.22
2022-10-16T18:42:33.337Z,100713.16
2022-10-16T18:45:01.545Z,100713.09
2022-10-16T18:47:30.475Z,100737.56
2022-10-16T18:49:58.745Z,100703.91
2022-10-16T18:52:28.987Z,100739.53
2022-10-16T18:54:58.675Z,100723.75
2022-10-16T18:57:30.301Z,100737.41
2022-10-16T18:59:58.603Z,100727.53
2022-10-16T19:02:26.887Z,100730.66
2022-10-16T19:04:55.019Z,100684.31
2022-10-16T19:07:23.144Z,100737.81
2022-10-16T19:09:52.735Z,100737.47
2022-10-16T19:12:20.689Z,100714.31
2022-10-16T19:14:49.433Z,100732.16
2022-10-16T19:17:17.571Z,100715.00
2022-10-16T19:19:46.559Z,100712.97
2022-10-16T19:22:28.054Z,100707.72
2022-10-16T19:24:57.792Z,100706.94
2022-10-16T19:27:27.328Z,100734.38
2022-10-16T19:29:55.871Z,100719.97
2022-10-16T19:32:24.713Z,100713.09
2022-10-16T19:34:53.241Z,100738.28
2022-10-16T19:37:25.909Z,100731.28
2022-10-16T19:39:53.900Z,100732.81
2022-10-16T19:42:23.303Z,100737.44
2022-10-16T19:44:51.633Z,100706.31
2022-10-16T19:47:22.214Z,100733.66
2022-10-16T19:49:52.536Z,100725.31
2022-10-16T19:52:22.234Z,100709.88
2022-10-16T19:54:50.502Z,100690.63
2022-10-16T19:57:18.781Z,100693.47
2022-10-16T19:59:48.240Z,100733.63
2022-10-16T20:02:16.319Z,100705.00
2022-10-16T20:04:44.674Z,100729.38
2022-10-16T20:07:12.818Z,100714.75
2022-10-16T20:09:41.066Z,100744.00
2022-10-16T20:12:09.098Z,100712.19
2022-10-16T20:14:37.578Z,100747.53
2022-10-16T20:17:07.149Z,100697.94
2022-10-16T20:19:35.359Z,100742.91
2022-10-16T20:22:03.739Z,100750.72
2022-10-16T20:24:32.031Z,100727.25
2022-10-16T20:27:00.952Z,100735.16
2022-10-16T20:29:28.924Z,100702.47
2022-10-16T20:31:56.900Z,100712.53
2022-10-16T20:34:26.284Z,100740.91
2022-10-16T20:36:54.512Z,100745.66
2022-10-16T20:39:22.502Z,100751.84
2022-10-16T20:41:50.475Z,100751.63
2022-10-16T20:44:18.390Z,100754.50
2022-10-16T20:46:46.276Z,100741.69
2022-10-16T20:49:28.509Z,100752.13
2022-10-16T20:52:03.795Z,100752.34
2022-10-16T20:54:31.797Z,100761.81
2022-10-16T20:56:59.993Z,100720.03
2022-10-16T20:59:28.251Z,100724.25
2022-10-16T21:01:56.536Z,100753.13
2022-10-16T21:04:24.616Z,100741.94
2022-10-16T21:06:52.867Z,100769.94
2022-10-16T21:09:22.343Z,100723.34
2022-10-16T21:11:50.290Z,100751.91
2022-10-16T21:14:18.354Z,100759.78
2022-10-16T21:16:47.080Z,100750.31
2022-10-16T21:19:15.102Z,100761.56
2022-10-16T21:21:43.136Z,100762.28
2022-10-16T21:24:21.793Z,100757.50
2022-10-16T21:26:51.371Z,100726.63
2022-10-16T21:29:20.233Z,100769.84
2022-10-16T21:31:48.316Z,100743.88
2022-10-16T21:34:16.199Z,100759.94
2022-10-16T21:36:47.417Z,100756.78
2022-10-16T21:39:17.380Z,100749.44
2022-10-16T21:41:47.600Z,100760.59
2022-10-16T21:44:17.697Z,100742.75
2022-10-16T21:46:46.088Z,100742.44
2022-10-16T21:49:17.265Z,100737.97
2022-10-16T21:51:46.946Z,100757.44
2022-10-16T21:54:16.739Z,100755.91
2022-10-16T21:56:45.145Z,100743.63
2022-10-16T21:59:14.735Z,100756.13
2022-10-16T22:01:44.555Z,100769.63
2022-10-16T22:04:13.457Z,100767.03
2022-10-16T22:06:44.937Z,100765.84
2022-10-16T22:09:16.153Z,100743.81
2022-10-16T22:11:45.997Z,100765.16
2022-10-16T22:14:16.449Z,100737.81
2022-10-16T22:16:46.603Z,100765.63
2022-10-16T22:19:15.701Z,100769.84
2022-10-16T22:21:46.026Z,100775.25
2022-10-16T22:24:15.529Z,100759.78
2022-10-16T22:26:43.806Z,100766.81
2022-10-16T22:29:13.292Z,100769.19
2022-10-16T22:31:41.186Z,100738.19
2022-10-16T22:34:14.151Z,100767.28
2022-10-16T22:36:42.398Z,100781.28
2022-10-16T22:39:10.728Z,100766.53
2022-10-16T22:41:38.804Z,100780.59
2022-10-16T22:44:06.826Z,100776.72
2022-10-16T22:46:34.629Z,100775.38
2022-10-16T22:49:02.406Z,100747.78
2022-10-16T22:51:31.937Z,100785.44
2022-10-16T22:54:00.210Z,100784.25
2022-10-16T22:56:28.531Z,100769.28
2022-10-16T22:58:56.528Z,100794.88
2022-10-16T23:01:27.148Z,100792.22
2022-10-16T23:03:55.844Z,100810.38
2022-10-16T23:06:24.102Z,100807.59
2022-10-16T23:08:54.629Z,100809.56
2022-10-16T23:11:22.766Z,100789.72
2022-10-16T23:13:50.909Z,100814.94
2022-10-16T23:16:20.997Z,100808.50
2022-10-16T23:18:49.757Z,100807.69
2022-10-16T23:21:19.503Z,100814.47
2022-10-16T23:23:47.589Z,100816.41
2022-10-16T23:26:19.718Z,100814.13
2022-10-16T23:28:48.135Z,100818.59
2022-10-16T23:31:17.619Z,100798.34
2022-10-16T23:33:46.309Z,100820.41
2022-10-16T23:36:16.710Z,100824.19
2022-10-16T23:38:48.066Z,100829.72
2022-10-16T23:41:18.741Z,100805.97
2022-10-16T23:43:47.046Z,100812.13
2022-10-16T23:46:16.020Z,100832.81
2022-10-16T23:48:44.423Z,100833.50
2022-10-16T23:51:13.244Z,100829.03
2022-10-16T23:53:41.438Z,100841.06
2022-10-16T23:56:10.803Z,100823.75
2022-10-16T23:58:41.022Z,100829.47
